Terminal Aerodrome Forecast
Issued by NWS Blacksburg, VA

Current Version | Previous Version | Text Only | Print | Product List | Glossary Off
Versions: 1 2 3 4 5 6 7 8 9 10 11 12 13 14 15 16 17 18 19 20 21 22 23 24 25 26 27 28 29 30 31 32 33 34 35 36 37 38 39 40

000
FTUS41 KRNK 272341 RRA
TAFBLF
TAF
KBLF 272341Z 2800/2818 27011G20KT P6SM SCT030 BKN080 OVC250
     FM280200 26010KT P6SM VCTS BKN025CB OVC050
      TEMPO 2802/2806 3SM -TSRA BR BKN015CB
     FM280600 27012G22KT 5SM -SHRA BR BKN015 OVC025
     FM280900 27010G20KT P6SM VCSH OVC015
     FM281400 28015G27KT P6SM OVC023=

USA.gov is the U.S. government's official web portal to all federal, state and local government web resources and services.